Time;durP1;ratioP1;P1;durP2;ratioP2;P2;SDS_P1;SDS_P2;PMS_P1;PMS_P2;Temp;Humidity;BMP_temperature;BMP_pressure;BME280_temperature;BME280_humidity;BME280_pressure;Samples;Min_cycle;Max_cycle;Signal;HPM_P1;HPM_P2
2022/10/18 00:00:40;;;;;;;91.05;84.65;;;17.60;99.90;;;;;;4991301;28;20050;-82
2022/10/18 00:03:06;;;;;;;60.50;55.15;;;17.60;99.90;;;;;;4975238;28;20038;-82
2022/10/18 00:05:32;;;;;;;77.82;70.97;;;17.50;99.90;;;;;;4990055;28;20041;-82
2022/10/18 00:07:58;;;;;;;77.57;70.03;;;17.30;99.90;;;;;;5007416;28;20038;-82
2022/10/18 00:10:24;;;;;;;63.22;58.53;;;17.30;99.90;;;;;;4974606;28;20037;-82
2022/10/18 00:12:51;;;;;;;72.38;67.60;;;17.30;99.90;;;;;;4975377;28;20491;-82
2022/10/18 00:15:17;;;;;;;60.38;46.80;;;17.30;99.90;;;;;;5006061;28;20030;-82
2022/10/18 00:17:43;;;;;;;27.58;24.73;;;17.20;99.90;;;;;;4975049;28;20037;-82
2022/10/18 00:20:10;;;;;;;55.63;51.83;;;17.20;99.90;;;;;;4973872;28;20038;-82
2022/10/18 00:22:37;;;;;;;58.22;53.55;;;17.10;99.90;;;;;;4975002;28;20045;-82
2022/10/18 00:25:03;;;;;;;48.10;43.08;;;17.00;99.90;;;;;;4971640;28;20033;-82
2022/10/18 00:27:30;;;;;;;49.90;46.58;;;16.90;99.90;;;;;;4974554;28;20050;-83
2022/10/18 00:29:56;;;;;;;33.97;30.65;;;17.00;99.90;;;;;;4991004;28;20038;-82
2022/10/18 00:32:22;;;;;;;63.10;39.92;;;17.00;99.90;;;;;;4973161;28;20124;-82
2022/10/18 00:34:48;;;;;;;38.33;35.85;;;16.90;99.90;;;;;;4958819;28;20031;-82
2022/10/18 00:37:14;;;;;;;37.08;34.28;;;17.10;99.90;;;;;;4956749;28;20043;-82
2022/10/18 00:39:40;;;;;;;41.45;38.80;;;17.10;99.90;;;;;;4988361;28;20535;-82
2022/10/18 00:42:06;;;;;;;40.47;37.88;;;17.00;99.90;;;;;;4984130;28;20385;-83
2022/10/18 00:44:32;;;;;;;33.40;29.77;;;17.10;99.90;;;;;;4973274;28;20038;-82
2022/10/18 00:47:01;;;;;;;40.15;36.35;;;17.00;99.90;;;;;;4990310;28;20038;-82
2022/10/18 00:49:35;;;;;;;38.70;35.17;;;17.20;99.90;;;;;;4975224;28;20027;-83
2022/10/18 00:52:09;;;;;;;40.33;36.10;;;17.40;99.90;;;;;;4990049;28;20031;-82
2022/10/18 00:54:37;;;;;;;36.95;34.15;;;17.30;99.90;;;;;;4955537;28;20512;-83
2022/10/18 00:57:04;;;;;;;50.50;46.58;;;17.30;99.90;;;;;;4957615;28;20407;-83
2022/10/18 00:59:30;;;;;;;44.05;40.75;;;17.30;99.90;;;;;;4974260;28;20034;-83
2022/10/18 01:01:56;;;;;;;45.47;41.92;;;17.20;99.90;;;;;;4955624;28;20049;-82
2022/10/18 01:04:22;;;;;;;41.90;38.88;;;17.30;99.90;;;;;;4972077;28;20045;-82
2022/10/18 01:07:11;;;;;;;45.55;42.25;;;17.20;99.90;;;;;;4989588;28;20476;-83
2022/10/18 01:09:59;;;;;;;55.78;51.20;;;17.20;99.90;;;;;;4983123;28;20480;-83
2022/10/18 01:13:03;;;;;;;46.03;42.72;;;17.20;99.90;;;;;;4991087;28;20056;-84
2022/10/18 01:15:32;;;;;;;48.80;45.25;;;17.20;99.90;;;;;;4984916;28;20023;-83
2022/10/18 01:18:11;;;;;;;48.40;44.58;;;17.20;99.90;;;;;;4963255;28;20034;-82
2022/10/18 01:21:03;;;;;;;48.22;44.90;;;17.20;99.90;;;;;;4961615;28;20019;-82
2022/10/18 01:23:56;;;;;;;47.83;44.33;;;17.20;99.90;;;;;;4991290;28;20027;-82
2022/10/18 01:26:35;;;;;;;44.67;41.00;;;17.20;99.90;;;;;;4959031;28;20046;-83
2022/10/18 01:29:23;;;;;;;42.65;39.35;;;17.30;99.90;;;;;;4974324;28;20026;-82
2022/10/18 01:31:52;;;;;;;53.22;49.13;;;17.40;99.90;;;;;;4973995;28;20050;-83
2022/10/18 01:34:18;;;;;;;65.13;59.33;;;17.50;99.90;;;;;;4955274;28;20039;-83
2022/10/18 01:36:49;;;;;;;63.90;59.63;;;17.60;99.90;;;;;;4959300;28;20051;-83
2022/10/18 01:39:20;;;;;;;59.30;53.47;;;17.60;99.90;;;;;;4958539;28;20039;-83
2022/10/18 01:41:46;;;;;;;53.10;49.15;;;17.50;99.90;;;;;;4979549;28;20046;-83
2022/10/18 01:44:15;;;;;;;53.90;49.70;;;17.60;99.90;;;;;;4942469;28;20035;-83
2022/10/18 01:46:41;;;;;;;48.38;44.53;;;17.50;99.90;;;;;;4974025;28;20391;-83
2022/10/18 01:49:07;;;;;;;46.53;42.55;;;17.40;99.90;;;;;;4974718;28;20042;-82
2022/10/18 01:51:33;;;;;;;42.08;38.53;;;17.30;99.90;;;;;;4974935;28;20027;-82
2022/10/18 01:53:59;;;;;;;41.17;37.95;;;17.30;99.90;;;;;;4954578;29;20035;-83
2022/10/18 01:56:30;;;;;;;46.30;41.47;;;17.20;99.90;;;;;;4974080;28;20038;-83
2022/10/18 01:59:14;;;;;;;47.53;43.42;;;17.30;99.90;;;;;;4954867;28;20046;-83
2022/10/18 02:01:43;;;;;;;46.08;42.83;;;17.40;99.90;;;;;;4970626;28;20048;-81
2022/10/18 02:04:22;;;;;;;51.80;47.83;;;17.40;99.90;;;;;;4971446;28;20030;-83
2022/10/18 02:06:50;;;;;;;38.15;35.10;;;17.50;99.90;;;;;;4983409;28;20062;-82
2022/10/18 02:09:24;;;;;;;34.05;31.70;;;17.50;99.90;;;;;;4943871;28;20046;-80
2022/10/18 02:11:50;;;;;;;44.05;40.40;;;17.30;99.90;;;;;;4955930;28;20031;-80
2022/10/18 02:14:16;;;;;;;44.22;40.42;;;17.30;99.90;;;;;;4972413;28;20045;-82
2022/10/18 02:16:48;;;;;;;40.90;38.08;;;17.30;99.90;;;;;;4972287;28;20054;-83
2022/10/18 02:19:24;;;;;;;41.40;38.08;;;17.30;99.90;;;;;;4972679;28;20055;-81
2022/10/18 02:21:50;;;;;;;40.20;37.28;;;17.30;99.90;;;;;;4956389;28;20043;-81
2022/10/18 02:24:17;;;;;;;40.55;37.22;;;17.40;99.90;;;;;;4945233;28;20507;-82
2022/10/18 02:26:43;;;;;;;38.20;35.53;;;17.30;99.90;;;;;;4972318;28;20049;-82
2022/10/18 02:29:09;;;;;;;32.58;30.20;;;17.20;99.90;;;;;;4971537;28;20042;-82
2022/10/18 02:31:47;;;;;;;39.42;36.70;;;17.10;99.90;;;;;;4987447;28;20053;-82
2022/10/18 02:34:23;;;;;;;38.80;36.00;;;17.10;99.90;;;;;;4957608;28;20034;-82
2022/10/18 02:36:59;;;;;;;38.33;35.72;;;17.10;99.90;;;;;;4947900;28;20038;-83
2022/10/18 02:39:31;;;;;;;37.17;34.53;;;17.10;99.90;;;;;;4973629;28;20030;-83
2022/10/18 02:41:58;;;;;;;37.20;34.30;;;17.10;99.90;;;;;;4972242;28;20031;-81
2022/10/18 02:44:24;;;;;;;33.67;31.13;;;17.10;99.90;;;;;;4945018;29;20047;-83
2022/10/18 02:46:50;;;;;;;30.30;27.98;;;17.10;99.90;;;;;;4969714;28;20050;-83
2022/10/18 02:49:16;;;;;;;35.20;32.80;;;17.10;99.90;;;;;;4970698;28;20479;-83
2022/10/18 02:51:42;;;;;;;38.90;36.35;;;17.10;99.90;;;;;;4975224;28;20030;-83
2022/10/18 02:54:09;;;;;;;32.20;30.10;;;17.10;99.90;;;;;;4954301;29;20035;-83
2022/10/18 02:56:35;;;;;;;38.70;36.33;;;17.00;99.90;;;;;;4923050;28;20031;-84
2022/10/18 02:59:02;;;;;;;40.13;37.40;;;17.00;99.90;;;;;;4973046;28;20039;-83
2022/10/18 03:01:28;;;;;;;37.22;34.97;;;17.10;99.90;;;;;;4969240;28;20485;-84
2022/10/18 03:03:54;;;;;;;32.55;30.50;;;17.10;99.90;;;;;;4938534;29;20047;-84
2022/10/18 03:06:20;;;;;;;32.72;30.38;;;17.10;99.90;;;;;;4958792;28;20483;-82
2022/10/18 03:08:46;;;;;;;36.05;33.70;;;17.10;99.90;;;;;;4957365;28;20049;-82
2022/10/18 03:11:13;;;;;;;31.23;29.33;;;17.10;99.90;;;;;;4971949;28;20380;-80
2022/10/18 03:13:39;;;;;;;37.35;34.90;;;17.10;99.90;;;;;;4969537;28;20039;-81
2022/10/18 03:16:05;;;;;;;35.20;33.08;;;17.00;99.90;;;;;;4953196;28;20047;-83
2022/10/18 03:18:31;;;;;;;32.80;30.85;;;17.00;99.90;;;;;;4953935;28;20050;-83
2022/10/18 03:20:57;;;;;;;33.45;31.27;;;17.00;99.90;;;;;;4974586;28;20039;-83
2022/10/18 03:23:23;;;;;;;32.25;30.20;;;17.00;99.90;;;;;;4972503;28;20035;-83
2022/10/18 03:25:49;;;;;;;29.95;28.02;;;17.10;99.90;;;;;;4957119;28;20043;-82
2022/10/18 03:28:15;;;;;;;31.50;29.60;;;17.10;99.90;;;;;;4940162;29;20404;-83
2022/10/18 03:30:41;;;;;;;32.97;31.02;;;17.20;99.90;;;;;;4971839;28;20046;-83
2022/10/18 03:33:08;;;;;;;36.10;33.88;;;17.10;99.90;;;;;;4954407;28;20031;-83
2022/10/18 03:35:34;;;;;;;39.40;37.03;;;17.10;99.90;;;;;;4940336;28;20047;-83
2022/10/18 03:38:00;;;;;;;35.95;33.75;;;17.10;99.90;;;;;;4972686;28;20041;-82
2022/10/18 03:40:26;;;;;;;38.97;36.55;;;17.10;99.90;;;;;;4988882;28;20518;-82
2022/10/18 03:42:52;;;;;;;38.17;35.97;;;17.10;99.90;;;;;;4960428;28;20043;-82
2022/10/18 03:45:18;;;;;;;36.92;34.60;;;17.20;99.90;;;;;;4985936;28;20399;-82
2022/10/18 03:47:44;;;;;;;35.03;32.78;;;17.30;99.90;;;;;;4956629;28;20046;-81
2022/10/18 03:50:10;;;;;;;33.47;31.42;;;17.10;99.90;;;;;;4956650;28;20030;-81
2022/10/18 03:52:36;;;;;;;34.70;32.35;;;17.10;99.90;;;;;;4971159;28;20030;-82
2022/10/18 03:55:03;;;;;;;30.58;28.50;;;17.00;99.90;;;;;;4952023;29;20042;-81
2022/10/18 03:57:29;;;;;;;31.38;29.48;;;17.10;99.90;;;;;;4964194;28;20043;-81
2022/10/18 03:59:55;;;;;;;33.03;31.05;;;17.00;99.90;;;;;;4971841;28;20033;-83
2022/10/18 04:02:21;;;;;;;35.13;33.00;;;16.90;99.90;;;;;;4965109;28;20035;-82
2022/10/18 04:04:48;;;;;;;31.83;29.85;;;16.90;99.90;;;;;;4953148;29;20035;-81
2022/10/18 04:07:14;;;;;;;34.67;32.47;;;16.90;99.90;;;;;;4946792;28;20055;-84
2022/10/18 04:09:40;;;;;;;33.00;30.77;;;16.90;99.90;;;;;;4971665;28;20054;-84
2022/10/18 04:12:06;;;;;;;34.85;32.60;;;16.90;99.90;;;;;;4969874;28;20043;-86
2022/10/18 04:14:32;;;;;;;33.95;31.73;;;17.00;99.90;;;;;;4973241;28;20037;-86
2022/10/18 04:16:58;;;;;;;34.88;32.55;;;17.10;99.90;;;;;;4973279;28;20038;-84
2022/10/18 04:19:24;;;;;;;34.83;32.60;;;17.00;99.90;;;;;;4971847;28;20491;-85
2022/10/18 04:21:50;;;;;;;32.55;30.45;;;17.10;99.90;;;;;;4973270;28;20034;-87
2022/10/18 04:24:16;;;;;;;37.75;35.13;;;17.10;99.90;;;;;;4955697;28;20053;-82
2022/10/18 04:26:43;;;;;;;36.65;34.35;;;17.10;99.90;;;;;;4955684;28;20464;-85
2022/10/18 04:29:09;;;;;;;37.05;34.72;;;17.10;99.90;;;;;;4972008;28;20046;-85
2022/10/18 04:31:35;;;;;;;35.72;33.38;;;17.10;99.90;;;;;;4971551;28;20035;-86
2022/10/18 04:34:03;;;;;;;34.60;32.10;;;17.00;99.90;;;;;;4971499;28;20042;-86
2022/10/18 04:36:30;;;;;;;34.30;32.20;;;17.00;99.90;;;;;;4972625;28;20388;-86
2022/10/18 04:38:56;;;;;;;34.28;32.17;;;17.00;99.90;;;;;;4955767;28;20042;-88
2022/10/18 04:41:22;;;;;;;37.67;35.22;;;17.10;99.90;;;;;;4969956;28;20051;-87
2022/10/18 04:43:48;;;;;;;30.23;28.38;;;17.00;99.90;;;;;;4952178;28;20503;-85
2022/10/18 04:46:14;;;;;;;34.78;32.25;;;17.00;99.90;;;;;;4968108;28;20035;-87
2022/10/18 04:48:40;;;;;;;32.60;30.35;;;17.00;99.90;;;;;;4969810;28;20499;-86
2022/10/18 04:51:06;;;;;;;35.85;33.33;;;17.10;99.90;;;;;;4955347;28;20047;-86
2022/10/18 04:53:32;;;;;;;38.67;36.05;;;17.20;99.90;;;;;;4975794;28;20472;-87
2022/10/18 04:55:58;;;;;;;36.15;33.58;;;17.10;99.90;;;;;;4959598;28;20046;-86
2022/10/18 04:58:25;;;;;;;38.22;35.58;;;17.00;99.90;;;;;;4959954;28;20039;-85
2022/10/18 05:00:51;;;;;;;34.60;32.00;;;17.00;99.90;;;;;;4958709;28;20549;-86
2022/10/18 05:03:17;;;;;;;33.92;31.50;;;17.00;99.90;;;;;;4960742;28;20043;-86
2022/10/18 05:05:44;;;;;;;36.05;33.50;;;17.00;99.90;;;;;;4943419;28;20039;-84
2022/10/18 05:08:11;;;;;;;36.25;33.90;;;16.90;99.90;;;;;;4958992;28;20407;-86
2022/10/18 05:10:37;;;;;;;30.92;28.80;;;16.90;99.90;;;;;;4974902;28;20034;-87
2022/10/18 05:13:03;;;;;;;34.00;31.55;;;16.90;99.90;;;;;;4956068;28;20464;-84
2022/10/18 05:15:29;;;;;;;30.30;27.85;;;17.00;99.90;;;;;;4975666;28;20509;-86
2022/10/18 05:17:55;;;;;;;31.10;28.48;;;17.00;99.90;;;;;;4943398;28;20049;-86
2022/10/18 05:20:21;;;;;;;32.00;29.73;;;17.10;99.90;;;;;;4975543;28;20383;-86
2022/10/18 05:22:48;;;;;;;29.55;27.27;;;17.10;99.90;;;;;;4975181;28;20046;-86
2022/10/18 05:25:14;;;;;;;32.75;30.52;;;17.20;99.90;;;;;;4959338;28;20391;-86
2022/10/18 05:27:40;;;;;;;37.17;34.78;;;17.20;99.90;;;;;;4976270;28;20047;-86
2022/10/18 05:30:06;;;;;;;39.78;37.13;;;17.20;99.90;;;;;;4974417;28;20443;-86
2022/10/18 05:32:32;;;;;;;36.00;33.30;;;17.10;99.90;;;;;;4975270;28;20043;-86
2022/10/18 05:34:59;;;;;;;43.30;40.40;;;17.10;99.90;;;;;;4942719;28;20043;-86
2022/10/18 05:37:25;;;;;;;39.83;37.28;;;17.10;99.90;;;;;;4974586;28;20061;-85
2022/10/18 05:39:51;;;;;;;43.95;40.80;;;17.10;99.90;;;;;;4958406;28;20050;-86
2022/10/18 05:42:17;;;;;;;44.70;41.70;;;17.10;99.90;;;;;;4975170;28;20035;-86
2022/10/18 05:44:43;;;;;;;35.33;32.90;;;17.10;99.90;;;;;;4974472;28;20035;-86
2022/10/18 05:47:09;;;;;;;34.17;31.63;;;17.10;99.90;;;;;;4974186;28;20050;-86
2022/10/18 05:49:35;;;;;;;38.85;36.25;;;17.10;99.90;;;;;;4975180;28;20043;-86
2022/10/18 05:52:01;;;;;;;28.83;26.83;;;17.20;99.90;;;;;;4954572;28;20687;-86
2022/10/18 05:54:27;;;;;;;31.17;29.20;;;17.10;99.90;;;;;;4955397;29;20380;-86
2022/10/18 05:56:53;;;;;;;28.63;26.80;;;17.10;99.90;;;;;;4955701;29;20030;-86
2022/10/18 05:59:20;;;;;;;30.27;28.30;;;17.10;99.90;;;;;;4955401;28;20046;-85
2022/10/18 06:01:46;;;;;;;28.98;27.02;;;17.10;99.90;;;;;;4969804;28;20042;-85
2022/10/18 06:04:12;;;;;;;29.48;27.55;;;17.10;99.90;;;;;;4957347;28;20042;-85
2022/10/18 06:06:38;;;;;;;32.15;30.02;;;17.00;99.90;;;;;;4974143;28;20038;-86
2022/10/18 06:09:05;;;;;;;29.33;27.00;;;17.10;99.90;;;;;;4990580;28;20047;-86
2022/10/18 06:11:31;;;;;;;25.58;23.60;;;17.10;99.90;;;;;;4989631;28;20381;-86
2022/10/18 06:13:57;;;;;;;27.65;25.75;;;17.00;99.90;;;;;;4974124;28;20035;-86
2022/10/18 06:16:24;;;;;;;28.60;26.55;;;17.00;99.90;;;;;;4963101;28;20496;-85
2022/10/18 06:18:51;;;;;;;26.73;24.75;;;17.00;99.90;;;;;;4971080;28;20183;-85
2022/10/18 06:21:18;;;;;;;28.33;26.48;;;17.00;99.90;;;;;;4970676;28;20034;-85
2022/10/18 06:23:53;;;;;;;27.27;25.58;;;17.00;99.90;;;;;;4981159;28;20039;-85
2022/10/18 06:26:19;;;;;;;26.55;24.65;;;17.00;99.90;;;;;;4985524;28;20058;-87
2022/10/18 06:28:45;;;;;;;27.92;26.13;;;17.00;99.90;;;;;;4948626;29;20413;-87
2022/10/18 06:31:11;;;;;;;26.98;25.02;;;16.90;99.90;;;;;;4982626;28;20043;-87
2022/10/18 06:33:37;;;;;;;26.60;24.88;;;16.90;99.90;;;;;;4957178;28;20039;-92
2022/10/18 06:36:12;;;;;;;28.35;26.38;;;16.90;99.90;;;;;;4976095;28;20031;-92
2022/10/18 06:38:38;;;;;;;29.80;27.70;;;16.90;99.90;;;;;;4981315;28;20380;-94
2022/10/18 06:41:04;;;;;;;28.67;26.65;;;16.90;99.90;;;;;;4953045;28;20047;-93
2022/10/18 06:43:30;;;;;;;28.50;26.30;;;16.90;99.90;;;;;;4969422;28;20046;-94
2022/10/18 06:45:56;;;;;;;28.58;26.70;;;16.90;99.90;;;;;;4967073;28;20033;-88
2022/10/18 06:48:22;;;;;;;24.33;22.67;;;16.90;99.90;;;;;;4983025;28;20043;-93
2022/10/18 06:50:56;;;;;;;28.85;26.95;;;16.90;99.90;;;;;;4983309;28;20035;-93
2022/10/18 06:53:27;;;;;;;26.15;24.13;;;16.80;99.90;;;;;;4982891;28;20030;-92
2022/10/18 06:56:00;;;;;;;34.60;32.20;;;16.90;99.90;;;;;;4956615;28;20050;-86
2022/10/18 06:58:27;;;;;;;32.95;30.67;;;16.90;99.90;;;;;;4956470;28;20046;-88
2022/10/18 07:00:53;;;;;;;28.02;25.77;;;16.80;99.90;;;;;;4989591;28;20023;-91
2022/10/18 07:03:20;;;;;;;27.20;25.10;;;16.80;99.90;;;;;;4985173;28;20051;-84
2022/10/18 07:05:47;;;;;;;29.27;26.50;;;16.80;99.90;;;;;;4944497;29;20050;-87
2022/10/18 07:08:13;;;;;;;27.58;25.17;;;16.80;99.90;;;;;;4962124;28;20500;-89
2022/10/18 07:10:40;;;;;;;24.48;22.67;;;16.80;99.90;;;;;;4938812;29;20043;-87
2022/10/18 07:13:06;;;;;;;30.08;27.63;;;16.80;99.90;;;;;;4971551;28;20050;-87
2022/10/18 07:15:32;;;;;;;26.58;24.30;;;16.80;99.90;;;;;;4972572;28;20038;-84
2022/10/18 07:17:58;;;;;;;24.75;22.70;;;16.80;99.90;;;;;;4957640;28;20038;-85
2022/10/18 07:20:25;;;;;;;27.73;25.15;;;16.80;99.90;;;;;;4973157;28;20038;-84
2022/10/18 07:22:55;;;;;;;27.85;25.25;;;16.70;99.90;;;;;;4972728;28;20042;-85
2022/10/18 07:25:21;;;;;;;25.98;23.88;;;16.80;99.90;;;;;;4972830;28;20380;-85
2022/10/18 07:27:47;;;;;;;26.63;24.50;;;16.70;99.90;;;;;;4957287;28;20034;-84
2022/10/18 07:30:13;;;;;;;26.85;24.73;;;16.80;99.90;;;;;;4973392;28;20400;-84
2022/10/18 07:32:39;;;;;;;27.67;25.55;;;16.80;99.90;;;;;;4956828;28;20034;-84
2022/10/18 07:35:05;;;;;;;29.00;26.45;;;16.70;99.90;;;;;;4954849;28;20042;-84
2022/10/18 07:37:32;;;;;;;35.13;31.90;;;16.70;99.90;;;;;;4956316;28;20031;-85
2022/10/18 07:39:58;;;;;;;30.67;28.17;;;16.70;99.90;;;;;;4972265;28;20059;-86
2022/10/18 07:42:24;;;;;;;34.35;31.42;;;16.80;99.90;;;;;;4971240;28;20046;-86
2022/10/18 07:44:50;;;;;;;43.10;39.60;;;16.80;99.90;;;;;;4964816;28;20043;-84
2022/10/18 07:47:17;;;;;;;38.47;35.38;;;16.80;99.90;;;;;;4939681;28;20051;-84
2022/10/18 07:49:43;;;;;;;28.98;26.48;;;16.80;99.90;;;;;;4973799;28;20369;-84
2022/10/18 07:52:09;;;;;;;45.13;41.17;;;16.80;99.90;;;;;;4956894;28;20035;-84
2022/10/18 07:54:36;;;;;;;32.22;29.25;;;16.90;99.90;;;;;;4956682;28;20079;-84
2022/10/18 07:57:03;;;;;;;37.95;34.45;;;16.80;99.90;;;;;;4972913;28;20023;-84
2022/10/18 07:59:29;;;;;;;38.90;33.47;;;16.90;99.90;;;;;;4971693;28;20038;-84
2022/10/18 08:01:55;;;;;;;32.70;29.58;;;16.90;99.90;;;;;;4971462;28;20035;-83
2022/10/18 08:04:21;;;;;;;43.72;39.63;;;16.90;99.90;;;;;;4953406;28;20054;-83
2022/10/18 08:06:48;;;;;;;30.30;27.70;;;16.90;99.90;;;;;;4953309;29;20035;-84
2022/10/18 08:09:14;;;;;;;25.48;23.35;;;16.90;99.90;;;;;;4953379;28;20058;-83
2022/10/18 08:11:40;;;;;;;30.40;27.42;;;16.80;99.90;;;;;;4957511;28;20023;-81
2022/10/18 08:14:06;;;;;;;34.65;31.20;;;16.90;99.90;;;;;;4972655;28;20031;-83
2022/10/18 08:16:32;;;;;;;30.52;27.48;;;16.90;99.90;;;;;;4987718;28;20035;-83
2022/10/18 08:18:58;;;;;;;33.88;30.67;;;17.00;99.90;;;;;;4988699;28;20515;-83
2022/10/18 08:21:24;;;;;;;30.00;27.13;;;17.00;99.90;;;;;;4987199;28;20041;-83
2022/10/18 08:23:50;;;;;;;28.98;25.90;;;17.00;99.90;;;;;;4953842;28;20408;-84
2022/10/18 08:26:18;;;;;;;31.17;28.67;;;17.00;99.90;;;;;;4966992;28;20566;-86
2022/10/18 08:28:44;;;;;;;32.33;29.58;;;17.00;99.90;;;;;;4971846;28;20042;-85
2022/10/18 08:31:12;;;;;;;35.58;32.50;;;17.00;99.90;;;;;;4971904;28;20502;-83
2022/10/18 08:33:38;;;;;;;33.10;30.13;;;17.10;99.90;;;;;;4972555;28;20035;-86
2022/10/18 08:36:06;;;;;;;34.38;31.60;;;17.00;99.90;;;;;;4971468;28;20039;-88
2022/10/18 08:38:36;;;;;;;32.15;29.05;;;17.10;99.90;;;;;;4961101;28;20039;-86
2022/10/18 08:41:17;;;;;;;30.05;27.23;;;17.20;99.90;;;;;;4939246;28;20042;-86
2022/10/18 08:44:00;;;;;;;38.05;34.78;;;17.30;99.90;;;;;;4970240;28;20365;-85
2022/10/18 08:46:26;;;;;;;37.33;34.70;;;17.30;99.90;;;;;;4970579;28;20031;-89
2022/10/18 08:48:53;;;;;;;40.95;37.35;;;17.20;99.90;;;;;;4972488;28;20514;-90
2022/10/18 08:51:41;;;;;;;35.22;32.17;;;17.20;99.90;;;;;;4939029;29;20505;-89
2022/10/18 08:54:12;;;;;;;38.33;35.50;;;17.30;99.90;;;;;;4947760;28;20034;-91
2022/10/18 08:56:38;;;;;;;38.08;34.95;;;17.20;99.90;;;;;;4989107;28;20468;-91
2022/10/18 08:59:09;;;;;;;40.95;37.72;;;17.20;99.90;;;;;;4973001;28;20042;-90
2022/10/18 09:01:35;;;;;;;35.47;32.30;;;17.20;99.90;;;;;;4983509;28;20035;-91
2022/10/18 09:04:42;;;;;;;37.70;34.78;;;17.20;99.90;;;;;;4974813;28;20491;-93
2022/10/18 09:07:35;;;;;;;42.40;38.55;;;17.20;99.90;;;;;;4952543;29;20039;-86
2022/10/18 09:10:15;;;;;;;40.83;37.38;;;17.30;99.90;;;;;;4973080;28;20395;-87
2022/10/18 09:13:00;;;;;;;41.33;38.05;;;17.30;99.90;;;;;;4953402;28;20035;-90
2022/10/18 09:16:06;;;;;;;39.83;36.08;;;17.40;99.90;;;;;;4983946;28;20406;-90
2022/10/18 09:18:59;;;;;;;38.65;35.78;;;17.40;99.90;;;;;;4951204;28;20051;-87
2022/10/18 09:21:46;;;;;;;37.72;34.35;;;17.30;99.90;;;;;;4971351;28;20130;-91
2022/10/18 09:24:13;;;;;;;41.28;38.13;;;17.30;99.90;;;;;;4956048;28;20512;-88
2022/10/18 09:26:47;;;;;;;39.55;36.42;;;17.30;99.90;;;;;;4946164;28;20055;-88
2022/10/18 09:29:41;;;;;;;51.30;47.53;;;17.40;99.90;;;;;;4969367;28;20428;-87
2022/10/18 09:32:21;;;;;;;41.75;38.55;;;17.30;99.90;;;;;;4947156;28;20055;-90
2022/10/18 09:35:13;;;;;;;37.35;34.67;;;17.30;99.90;;;;;;4971385;28;20072;-88
2022/10/18 09:37:39;;;;;;;44.17;41.05;;;17.30;99.90;;;;;;4952345;28;20046;-89
2022/10/18 09:40:24;;;;;;;37.78;34.85;;;17.30;99.90;;;;;;4961448;28;20504;-89
2022/10/18 09:42:52;;;;;;;52.25;48.85;;;17.40;99.90;;;;;;4973889;28;20035;-88
2022/10/18 09:45:30;;;;;;;40.65;38.00;;;17.40;99.90;;;;;;4956685;28;20487;-88
2022/10/18 09:48:12;;;;;;;41.92;38.85;;;17.40;99.90;;;;;;4946480;28;20492;-89
2022/10/18 09:50:43;;;;;;;43.17;40.17;;;17.30;99.90;;;;;;4972230;28;20139;-89
2022/10/18 09:53:25;;;;;;;39.55;36.65;;;17.30;99.90;;;;;;4973176;28;20022;-91
2022/10/18 09:55:58;;;;;;;36.50;33.80;;;17.40;99.90;;;;;;4978063;28;20038;-91
2022/10/18 09:58:24;;;;;;;40.72;37.90;;;17.40;99.90;;;;;;4975932;28;20479;-87
2022/10/18 10:00:51;;;;;;;44.13;40.80;;;17.40;99.90;;;;;;4966027;28;20054;-87
2022/10/18 10:03:17;;;;;;;40.85;38.08;;;17.40;99.90;;;;;;4940734;28;20499;-87
2022/10/18 10:05:43;;;;;;;40.17;37.40;;;17.50;99.90;;;;;;4958007;28;20034;-86
2022/10/18 10:08:09;;;;;;;45.22;41.95;;;17.50;99.90;;;;;;4958727;28;20054;-91
2022/10/18 10:10:38;;;;;;;47.97;44.72;;;17.50;99.90;;;;;;4943384;28;20039;-90
2022/10/18 10:13:05;;;;;;;46.20;42.55;;;17.50;99.90;;;;;;4974872;28;20391;-88
2022/10/18 10:15:32;;;;;;;46.92;43.63;;;17.50;99.90;;;;;;4957179;28;20456;-90
2022/10/18 10:17:59;;;;;;;44.97;41.83;;;17.50;99.90;;;;;;4971475;28;20031;-92
2022/10/18 10:20:40;;;;;;;40.70;37.72;;;17.50;99.90;;;;;;4978957;28;20034;-88
2022/10/18 10:23:11;;;;;;;33.47;30.90;;;17.60;99.90;;;;;;4939045;29;20050;-90
2022/10/18 10:25:38;;;;;;;34.97;32.47;;;17.60;99.90;;;;;;4954908;28;20038;-92
2022/10/18 10:28:17;;;;;;;38.67;36.08;;;17.70;99.90;;;;;;4973716;28;20030;-92
2022/10/18 10:30:43;;;;;;;39.30;36.70;;;17.70;99.90;;;;;;4957268;28;20054;-90
2022/10/18 10:33:29;;;;;;;41.15;38.42;;;17.70;99.90;;;;;;4974995;28;20050;-89
2022/10/18 10:35:59;;;;;;;42.08;39.20;;;17.70;99.90;;;;;;4973366;28;20042;-89
2022/10/18 10:38:27;;;;;;;43.37;40.27;;;17.80;99.90;;;;;;4957948;28;20046;-87
2022/10/18 10:40:54;;;;;;;41.08;38.10;;;17.80;99.90;;;;;;4979264;28;20050;-89
2022/10/18 10:43:23;;;;;;;36.47;34.15;;;17.90;99.90;;;;;;4974754;28;20034;-89
2022/10/18 10:45:57;;;;;;;27.75;25.88;;;17.90;99.90;;;;;;4958130;28;20033;-90
2022/10/18 10:48:24;;;;;;;27.05;25.00;;;17.90;99.90;;;;;;4973569;28;20042;-89
2022/10/18 10:50:50;;;;;;;29.23;27.08;;;18.00;99.90;;;;;;4953092;28;20039;-89
2022/10/18 10:53:45;;;;;;;27.48;25.45;;;18.10;99.90;;;;;;4974290;28;20031;-88
2022/10/18 10:56:28;;;;;;;29.50;27.40;;;18.10;99.90;;;;;;4969428;28;20388;-88
2022/10/18 10:58:56;;;;;;;32.50;30.08;;;18.10;99.90;;;;;;4942230;28;20038;-88
2022/10/18 11:01:30;;;;;;;29.85;27.75;;;18.20;99.90;;;;;;4955910;28;20388;-87
2022/10/18 11:03:58;;;;;;;31.58;29.27;;;18.20;99.90;;;;;;4946701;29;20043;-86
2022/10/18 11:06:35;;;;;;;28.50;26.23;;;18.30;99.90;;;;;;4971796;28;20035;-87
2022/10/18 11:09:02;;;;;;;30.83;28.40;;;18.40;99.90;;;;;;4970283;28;20050;-87
2022/10/18 11:11:31;;;;;;;32.63;30.38;;;18.40;99.90;;;;;;4956140;28;20042;-88
2022/10/18 11:14:03;;;;;;;31.75;29.17;;;18.60;99.90;;;;;;4957408;28;20046;-86
2022/10/18 11:16:49;;;;;;;31.92;29.65;;;18.60;99.90;;;;;;4955990;28;20294;-87
2022/10/18 11:20:00;;;;;;;25.83;23.50;;;18.70;99.90;;;;;;4972757;28;20026;-88
2022/10/18 11:22:27;;;;;;;23.55;21.85;;;18.80;99.90;;;;;;4936909;29;20043;-88
2022/10/18 11:24:53;;;;;;;23.45;21.73;;;18.90;99.90;;;;;;4920760;29;20031;-87
2022/10/18 11:27:40;;;;;;;24.05;22.35;;;18.80;99.90;;;;;;4919839;29;20050;-87
2022/10/18 11:30:37;;;;;;;23.30;21.42;;;18.80;99.90;;;;;;4951232;28;20066;-87
2022/10/18 11:33:24;;;;;;;23.23;21.45;;;18.90;99.90;;;;;;4951147;28;20054;-87
2022/10/18 11:35:55;;;;;;;22.58;20.58;;;19.00;99.90;;;;;;4936448;29;20027;-88
2022/10/18 11:38:31;;;;;;;27.25;25.58;;;19.10;99.90;;;;;;4936210;29;20054;-88
2022/10/18 11:41:11;;;;;;;25.58;23.48;;;19.20;99.90;;;;;;4951110;28;20382;-87
2022/10/18 11:43:56;;;;;;;34.33;32.05;;;19.40;99.90;;;;;;4949047;28;20050;-88
2022/10/18 11:46:26;;;;;;;25.73;24.02;;;19.40;99.90;;;;;;4950750;28;20035;-88
2022/10/18 11:49:23;;;;;;;25.85;24.15;;;19.40;99.90;;;;;;4952540;29;20039;-89
2022/10/18 11:52:02;;;;;;;33.97;30.83;;;19.40;99.90;;;;;;4936290;29;20046;-89
2022/10/18 11:54:53;;;;;;;31.73;29.42;;;19.40;99.90;;;;;;4936467;29;20031;-89
2022/10/18 11:57:38;;;;;;;34.35;31.90;;;19.40;99.90;;;;;;4936745;29;20043;-89
2022/10/18 12:00:16;;;;;;;41.50;38.97;;;19.50;99.90;;;;;;4970907;28;20043;-88
2022/10/18 12:02:42;;;;;;;49.92;46.88;;;19.50;99.90;;;;;;4945345;28;20489;-89
2022/10/18 12:05:08;;;;;;;38.10;35.50;;;19.60;99.90;;;;;;4971975;28;20511;-87
2022/10/18 12:07:55;;;;;;;37.88;35.03;;;19.70;99.90;;;;;;4972773;28;20038;-89
2022/10/18 12:10:21;;;;;;;38.03;35.53;;;19.80;99.90;;;;;;4957259;28;20043;-88
2022/10/18 12:12:52;;;;;;;36.90;34.50;;;19.90;99.90;;;;;;4971717;28;20031;-89
2022/10/18 12:15:20;;;;;;;34.72;32.30;;;20.00;99.90;;;;;;4985076;28;20041;-88
2022/10/18 12:17:47;;;;;;;33.75;31.08;;;20.10;99.90;;;;;;4975357;28;20030;-89
2022/10/18 12:20:18;;;;;;;37.70;35.35;;;20.20;99.90;;;;;;4991175;28;20046;-88
2022/10/18 12:23:02;;;;;;;43.58;40.88;;;20.20;99.90;;;;;;4987392;28;20038;-89
2022/10/18 12:25:29;;;;;;;44.17;41.13;;;20.30;99.90;;;;;;4990081;28;20038;-88
2022/10/18 12:27:59;;;;;;;38.72;35.92;;;20.40;99.90;;;;;;4954536;28;20039;-88
2022/10/18 12:30:46;;;;;;;33.28;31.08;;;20.50;99.90;;;;;;5006430;28;20050;-89
2022/10/18 12:33:20;;;;;;;30.75;28.50;;;20.70;99.90;;;;;;5007043;28;20042;-89
2022/10/18 12:36:03;;;;;;;35.05;32.40;;;20.90;99.90;;;;;;4975223;28;20057;-88
2022/10/18 12:38:39;;;;;;;28.65;26.73;;;21.00;99.90;;;;;;5005969;28;20063;-88
2022/10/18 12:41:05;;;;;;;30.65;28.13;;;21.00;99.90;;;;;;4975038;28;20050;-89
2022/10/18 12:43:35;;;;;;;36.33;33.83;;;20.80;99.90;;;;;;4986615;28;20035;-86